Terminal Aerodrome Forecast
Issued by NWS

Home | Current Version | Previous Version | Graphics & Text | Print | Product List | Glossary On
Versions: 1 2 3 4 5 6 7 8 9 10 11 12 13 14 15 16 17 18 19
000
FTUS43 KGRB 031455 AAA
TAFCWA
TAF AMD
KCWA 031455Z 0315/0412 VRB03KT P6SM SCT006 BKN020
      TEMPO 0315/0317 BKN006
     FM032100 05005KT P6SM VCSH SCT040 SCT100
     FM040100 04004KT P6SM SCT050
     FM040600 VRB02KT 3SM BR SCT004
      TEMPO 0408/0412 1SM BR BKN004=

USA.gov is the U.S. government's official web portal to all federal, state and local government web resources and services.